createdAt,value
2022-11-02T00:01:49.739Z,18.32
2022-11-02T00:04:16.824Z,18.36
2022-11-02T00:06:44.550Z,18.33
2022-11-02T00:09:11.249Z,18.32
2022-11-02T00:11:38.401Z,18.23
2022-11-02T00:14:05.243Z,18.27
2022-11-02T00:16:33.370Z,18.33
2022-11-02T00:19:03.398Z,18.34
2022-11-02T00:21:30.355Z,18.30
2022-11-02T00:24:00.754Z,18.31
2022-11-02T00:26:28.914Z,18.38
2022-11-02T00:28:55.994Z,18.35
2022-11-02T00:31:22.867Z,18.32
2022-11-02T00:33:50.056Z,18.25
2022-11-02T00:36:17.267Z,18.23
2022-11-02T00:38:43.927Z,18.29
2022-11-02T00:41:10.767Z,18.32
2022-11-02T00:43:37.719Z,18.29
2022-11-02T00:46:05.109Z,18.32
2022-11-02T00:48:31.711Z,18.26
2022-11-02T00:50:58.710Z,18.19
2022-11-02T00:53:28.331Z,18.21
2022-11-02T00:55:55.068Z,18.28
2022-11-02T00:58:21.736Z,18.26
2022-11-02T01:00:50.545Z,18.29
2022-11-02T01:03:17.323Z,18.16
2022-11-02T01:05:44.153Z,18.16
2022-11-02T01:08:11.374Z,18.21
2022-11-02T01:10:38.995Z,18.19
2022-11-02T01:13:06.550Z,18.25
2022-11-02T01:15:33.307Z,18.10
2022-11-02T01:17:59.997Z,18.17
2022-11-02T01:20:27.664Z,18.15
2022-11-02T01:22:54.197Z,18.09
2022-11-02T01:25:20.823Z,18.12
2022-11-02T01:27:47.454Z,18.08
2022-11-02T01:30:14.379Z,18.05
2022-11-02T01:32:43.706Z,18.12
2022-11-02T01:35:10.483Z,18.15
2022-11-02T01:37:38.405Z,18.07
2022-11-02T01:40:05.812Z,18.06
2022-11-02T01:42:32.599Z,18.11
2022-11-02T01:45:02.644Z,18.00
2022-11-02T01:47:33.250Z,18.05
2022-11-02T01:50:13.354Z,18.14
2022-11-02T01:52:41.478Z,18.01
2022-11-02T01:55:16.600Z,18.04
2022-11-02T01:57:49.187Z,18.01
2022-11-02T02:00:18.334Z,18.02
2022-11-02T02:03:10.109Z,18.00
2022-11-02T02:05:43.298Z,18.01
2022-11-02T02:08:33.055Z,17.95
2022-11-02T02:10:59.944Z,18.04
2022-11-02T02:13:28.232Z,18.00
2022-11-02T02:16:33.618Z,18.00
2022-11-02T02:19:06.587Z,18.08
2022-11-02T02:21:45.411Z,18.01
2022-11-02T02:24:39.568Z,17.98
2022-11-02T02:27:28.577Z,18.06
2022-11-02T02:30:05.828Z,18.02
2022-11-02T02:32:38.701Z,18.07
2022-11-02T02:35:26.406Z,18.01
2022-11-02T02:37:57.213Z,17.90
2022-11-02T02:40:39.417Z,17.95
2022-11-02T02:43:15.713Z,18.05
2022-11-02T02:45:50.597Z,17.96
2022-11-02T02:48:26.148Z,17.89
2022-11-02T02:51:12.366Z,17.91
2022-11-02T02:53:45.066Z,17.87
2022-11-02T02:56:19.064Z,17.91
2022-11-02T02:58:53.797Z,17.93
2022-11-02T03:01:20.804Z,17.91
2022-11-02T03:03:48.234Z,17.96
2022-11-02T03:06:35.325Z,17.97
2022-11-02T03:09:14.177Z,17.92
2022-11-02T03:11:56.622Z,17.88
2022-11-02T03:14:38.681Z,17.84
2022-11-02T03:17:16.636Z,17.81
2022-11-02T03:20:24.095Z,17.84
2022-11-02T03:23:37.178Z,17.79
2022-11-02T03:26:04.117Z,17.86
2022-11-02T03:29:00.842Z,17.80
2022-11-02T03:31:37.369Z,17.83
2022-11-02T03:34:25.748Z,17.81
2022-11-02T03:37:14.690Z,17.75
2022-11-02T03:39:46.202Z,17.74
2022-11-02T03:42:18.261Z,17.81
2022-11-02T03:44:51.891Z,17.83
2022-11-02T03:47:21.273Z,17.87
2022-11-02T03:49:51.015Z,17.87
2022-11-02T03:52:21.376Z,17.79
2022-11-02T03:55:02.783Z,17.79
2022-11-02T03:57:36.771Z,17.71
2022-11-02T04:00:12.054Z,17.83
2022-11-02T04:02:48.319Z,17.79
2022-11-02T04:05:15.497Z,17.73
2022-11-02T04:08:09.196Z,17.70
2022-11-02T04:10:35.816Z,17.66
2022-11-02T04:13:21.354Z,17.72
2022-11-02T04:15:48.149Z,17.69
2022-11-02T04:18:33.753Z,17.64
2022-11-02T04:21:00.565Z,17.80
2022-11-02T04:23:45.810Z,17.70
2022-11-02T04:26:12.594Z,17.64
2022-11-02T04:28:43.659Z,17.66
2022-11-02T04:31:12.981Z,17.72
2022-11-02T04:33:41.407Z,17.71
2022-11-02T04:36:14.461Z,17.62
2022-11-02T04:38:41.944Z,17.62
2022-11-02T04:41:44.326Z,17.67
2022-11-02T04:44:33.874Z,17.63
2022-11-02T04:47:04.920Z,17.61
2022-11-02T04:49:34.150Z,17.64
2022-11-02T04:52:00.726Z,17.68
2022-11-02T04:54:29.183Z,17.59
2022-11-02T04:57:00.485Z,17.62
2022-11-02T04:59:28.771Z,17.63
2022-11-02T05:01:55.764Z,17.68
2022-11-02T05:04:22.663Z,17.42
2022-11-02T05:06:49.687Z,17.43
2022-11-02T05:09:18.308Z,17.62
2022-11-02T05:11:47.488Z,17.68
2022-11-02T05:14:14.354Z,17.67
2022-11-02T05:16:41.086Z,17.65
2022-11-02T05:19:10.996Z,17.67
2022-11-02T05:21:39.272Z,17.61
2022-11-02T05:24:06.898Z,17.60
2022-11-02T05:26:34.095Z,17.52
2022-11-02T05:29:00.683Z,17.57
2022-11-02T05:31:28.019Z,17.59
2022-11-02T05:33:57.017Z,17.55
2022-11-02T05:36:23.880Z,17.54
2022-11-02T05:38:53.998Z,17.56
2022-11-02T05:41:21.621Z,17.51
2022-11-02T05:43:49.194Z,17.52
2022-11-02T05:46:21.544Z,17.60
2022-11-02T05:48:48.335Z,17.53
2022-11-02T05:51:14.888Z,17.53
2022-11-02T05:53:41.551Z,17.52
2022-11-02T05:56:10.363Z,17.50
2022-11-02T05:58:37.323Z,17.51
2022-11-02T06:01:06.765Z,17.51
2022-11-02T06:03:34.055Z,17.51
2022-11-02T06:06:04.033Z,17.54
2022-11-02T06:08:38.545Z,17.44
2022-11-02T06:11:06.842Z,17.50
2022-11-02T06:13:34.103Z,17.54
2022-11-02T06:16:01.348Z,17.49
2022-11-02T06:18:27.998Z,17.54
2022-11-02T06:20:58.211Z,17.48
2022-11-02T06:23:25.775Z,17.43
2022-11-02T06:25:54.230Z,17.49
2022-11-02T06:28:21.317Z,17.46
2022-11-02T06:30:49.452Z,17.59
2022-11-02T06:33:19.091Z,17.52
2022-11-02T06:35:54.043Z,17.42
2022-11-02T06:38:21.669Z,17.42
2022-11-02T06:40:59.041Z,17.52
2022-11-02T06:43:26.383Z,17.45
2022-11-02T06:46:00.057Z,17.43
2022-11-02T06:48:34.205Z,17.43
2022-11-02T06:51:02.988Z,17.37
2022-11-02T06:53:30.025Z,17.41
2022-11-02T06:55:58.391Z,17.37
2022-11-02T06:58:25.365Z,17.37
2022-11-02T07:01:01.425Z,17.36
2022-11-02T07:03:28.889Z,17.36
2022-11-02T07:05:56.158Z,17.43
2022-11-02T07:08:23.225Z,17.47
2022-11-02T07:10:50.398Z,17.38
2022-11-02T07:13:17.363Z,17.42
2022-11-02T07:15:43.968Z,17.38
2022-11-02T07:18:10.564Z,17.37
2022-11-02T07:20:37.223Z,17.43
2022-11-02T07:23:05.655Z,17.35
2022-11-02T07:25:33.539Z,17.35
2022-11-02T07:28:01.575Z,17.30
2022-11-02T07:30:29.740Z,17.40
2022-11-02T07:32:56.405Z,17.37
2022-11-02T07:35:23.046Z,17.33
2022-11-02T07:38:00.474Z,17.36
2022-11-02T07:40:28.882Z,17.45
2022-11-02T07:42:56.288Z,17.36
2022-11-02T07:45:33.201Z,17.30
2022-11-02T07:47:59.740Z,17.31
2022-11-02T07:50:27.224Z,17.31
2022-11-02T07:52:55.843Z,17.28
2022-11-02T07:55:28.053Z,17.24
2022-11-02T07:58:09.985Z,17.26
2022-11-02T08:00:38.893Z,17.32
2022-11-02T08:03:07.812Z,17.32
2022-11-02T08:05:36.461Z,17.32
2022-11-02T08:08:06.039Z,17.21
2022-11-02T08:10:37.445Z,17.18
2022-11-02T08:13:11.315Z,17.26
2022-11-02T08:15:38.175Z,17.21
2022-11-02T08:18:06.259Z,17.21
2022-11-02T08:20:34.954Z,17.18
2022-11-02T08:23:01.990Z,17.21
2022-11-02T08:25:28.811Z,17.25
2022-11-02T08:27:59.725Z,17.31
2022-11-02T08:30:30.596Z,17.20
2022-11-02T08:33:04.527Z,17.23
2022-11-02T08:35:31.225Z,17.24
2022-11-02T08:37:59.858Z,17.21
2022-11-02T08:40:27.100Z,17.16
2022-11-02T08:43:00.900Z,17.16
2022-11-02T08:45:32.350Z,17.19
2022-11-02T08:48:06.568Z,17.16
2022-11-02T08:50:34.235Z,17.10
2022-11-02T08:53:00.873Z,17.18
2022-11-02T08:55:28.018Z,17.10
2022-11-02T08:57:57.134Z,17.16
2022-11-02T09:00:26.523Z,17.17
2022-11-02T09:03:00.554Z,17.15
2022-11-02T09:05:28.406Z,17.08
2022-11-02T09:08:00.246Z,17.10
2022-11-02T09:10:29.308Z,17.05
2022-11-02T09:12:56.244Z,17.13
2022-11-02T09:15:22.920Z,17.07
2022-11-02T09:17:50.114Z,17.08
2022-11-02T09:20:17.981Z,17.07
2022-11-02T09:22:45.457Z,17.05
2022-11-02T09:25:13.678Z,17.04
2022-11-02T09:27:41.305Z,16.98
2022-11-02T09:30:09.210Z,17.08
2022-11-02T09:32:36.334Z,17.03
2022-11-02T09:35:06.161Z,17.10
2022-11-02T09:37:33.508Z,17.07
2022-11-02T09:40:00.345Z,16.98
2022-11-02T09:42:37.941Z,16.98
2022-11-02T09:45:17.150Z,17.02
2022-11-02T09:48:15.421Z,17.04
2022-11-02T09:51:15.230Z,17.06
2022-11-02T09:54:16.184Z,17.00
2022-11-02T09:56:44.959Z,16.98
2022-11-02T09:59:16.034Z,17.05
2022-11-02T10:01:57.837Z,17.06
2022-11-02T10:04:33.071Z,17.01
2022-11-02T10:07:12.351Z,17.02
2022-11-02T10:09:41.820Z,16.98
2022-11-02T10:12:14.396Z,16.95
2022-11-02T10:15:02.438Z,17.00
2022-11-02T10:17:34.058Z,17.00
2022-11-02T10:20:12.873Z,17.03
2022-11-02T10:22:42.521Z,17.05
2022-11-02T10:25:15.966Z,17.00
2022-11-02T10:27:45.576Z,17.00
2022-11-02T10:30:16.420Z,16.96
2022-11-02T10:32:45.033Z,16.94
2022-11-02T10:35:40.685Z,16.97
2022-11-02T10:38:38.412Z,16.99
2022-11-02T10:41:22.144Z,16.97
2022-11-02T10:44:20.552Z,16.98
2022-11-02T10:46:47.355Z,17.04
2022-11-02T10:49:17.293Z,17.01
2022-11-02T10:51:43.914Z,17.02
2022-11-02T10:54:17.871Z,17.02
2022-11-02T10:56:49.461Z,16.97
2022-11-02T10:59:23.683Z,17.05
2022-11-02T11:01:56.436Z,17.06
2022-11-02T11:04:30.552Z,17.03
2022-11-02T11:07:03.569Z,17.04
2022-11-02T11:09:40.490Z,17.01
2022-11-02T11:12:26.324Z,16.98
2022-11-02T11:20:37.008Z,17.04
2022-11-02T11:23:12.343Z,17.02
2022-11-02T11:25:40.700Z,17.04
2022-11-02T11:28:28.201Z,17.09
2022-11-02T11:31:14.713Z,17.07
2022-11-02T11:33:49.198Z,17.08
2022-11-02T11:36:30.932Z,17.05
2022-11-02T11:39:01.180Z,17.08
2022-11-02T11:41:30.067Z,17.09
2022-11-02T11:43:57.492Z,17.08
2022-11-02T11:46:39.351Z,17.11
2022-11-02T11:49:11.703Z,17.07
2022-11-02T11:51:45.237Z,17.07
2022-11-02T11:54:21.161Z,17.06
2022-11-02T11:56:49.302Z,17.09
2022-11-02T11:59:26.469Z,17.14
2022-11-02T12:01:57.324Z,17.06
2022-11-02T12:04:35.396Z,17.15
2022-11-02T12:07:13.172Z,17.10
2022-11-02T12:10:19.778Z,17.10
2022-11-02T12:13:00.507Z,17.08
2022-11-02T12:15:33.188Z,17.13
2022-11-02T12:18:18.068Z,17.09
2022-11-02T12:20:47.413Z,17.12
2022-11-02T12:23:36.096Z,17.14
2022-11-02T12:26:29.871Z,17.10
2022-11-02T12:29:04.567Z,17.12
2022-11-02T12:31:41.418Z,17.16
2022-11-02T12:34:52.915Z,17.18
2022-11-02T12:37:40.906Z,17.19
2022-11-02T12:40:37.105Z,17.15
2022-11-02T12:43:32.927Z,17.16
2022-11-02T12:46:05.933Z,17.19
2022-11-02T12:49:07.999Z,17.20
2022-11-02T12:51:43.640Z,17.20
2022-11-02T12:54:20.837Z,17.22
2022-11-02T12:56:52.757Z,17.29
2022-11-02T12:59:25.230Z,17.34
2022-11-02T13:01:57.581Z,17.44
2022-11-02T13:04:35.456Z,17.49
2022-11-02T13:07:11.785Z,17.43
2022-11-02T13:09:52.158Z,17.44
2022-11-02T13:12:22.718Z,17.45
2022-11-02T13:14:52.346Z,17.41
2022-11-02T13:17:26.236Z,17.41
2022-11-02T13:19:59.467Z,17.46
2022-11-02T13:22:35.594Z,17.51
2022-11-02T13:25:40.387Z,17.59
2022-11-02T13:28:26.499Z,17.64
2022-11-02T13:30:54.574Z,17.65
2022-11-02T13:33:26.554Z,17.64
2022-11-02T13:35:54.269Z,17.49
2022-11-02T13:38:26.707Z,17.62
2022-11-02T13:41:22.644Z,17.63
2022-11-02T13:44:23.555Z,17.64
2022-11-02T13:47:24.247Z,17.64
2022-11-02T13:49:56.348Z,17.64
2022-11-02T13:52:42.636Z,17.59
2022-11-02T13:55:18.085Z,17.54
2022-11-02T13:57:49.393Z,17.57
2022-11-02T14:00:25.165Z,17.46
2022-11-02T14:02:58.522Z,17.49
2022-11-02T14:05:30.686Z,17.46
2022-11-02T14:08:06.849Z,17.45
2022-11-02T14:10:38.664Z,17.59
2022-11-02T14:13:05.747Z,17.52
2022-11-02T14:15:32.493Z,17.59
2022-11-02T14:18:25.614Z,17.52
2022-11-02T14:20:52.579Z,17.52
2022-11-02T14:23:36.318Z,17.50
2022-11-02T14:26:03.063Z,17.47
2022-11-02T14:28:43.265Z,17.44
2022-11-02T14:31:15.801Z,17.52
2022-11-02T14:34:00.336Z,17.49
2022-11-02T14:36:46.002Z,17.52
2022-11-02T14:39:50.742Z,17.55
2022-11-02T14:42:34.600Z,17.56
2022-11-02T14:45:44.395Z,17.51
2022-11-02T14:48:16.442Z,17.50
2022-11-02T14:50:57.173Z,17.53
2022-11-02T14:53:27.488Z,17.60
2022-11-02T14:55:56.767Z,17.63
2022-11-02T14:58:37.926Z,17.56
2022-11-02T15:01:06.364Z,17.51
2022-11-02T15:03:38.164Z,17.57
2022-11-02T15:06:17.822Z,17.54
2022-11-02T15:08:58.247Z,17.47
2022-11-02T15:11:50.657Z,17.51
2022-11-02T15:14:35.429Z,17.47
2022-11-02T15:17:24.200Z,17.43
2022-11-02T15:19:53.648Z,17.42
2022-11-02T15:22:28.963Z,17.40
2022-11-02T15:25:02.320Z,17.40
2022-11-02T15:27:30.161Z,17.45
2022-11-02T15:29:58.187Z,17.41
2022-11-02T15:32:28.814Z,17.39
2022-11-02T15:34:57.227Z,17.38
2022-11-02T15:37:50.496Z,17.40
2022-11-02T15:40:25.986Z,17.35
2022-11-02T15:43:13.828Z,17.32
2022-11-02T15:46:02.097Z,17.34
2022-11-02T15:48:41.360Z,17.37
2022-11-02T15:51:19.849Z,17.32
2022-11-02T15:53:55.656Z,17.29
2022-11-02T15:56:39.677Z,17.32
2022-11-02T15:59:31.297Z,17.31
2022-11-02T16:02:11.516Z,17.24
2022-11-02T16:04:39.087Z,17.26
2022-11-02T16:07:14.944Z,17.29
2022-11-02T16:09:41.926Z,17.30
2022-11-02T16:12:16.590Z,17.27
2022-11-02T16:14:44.712Z,17.31
2022-11-02T16:17:20.390Z,17.29
2022-11-02T16:19:47.083Z,17.25
2022-11-02T16:22:26.869Z,17.25
2022-11-02T16:24:54.753Z,17.27
2022-11-02T16:27:22.699Z,17.24
2022-11-02T16:29:50.778Z,17.27
2022-11-02T16:32:17.545Z,17.25
2022-11-02T16:34:44.427Z,17.24
2022-11-02T16:37:14.741Z,17.24
2022-11-02T16:39:46.634Z,17.26
2022-11-02T16:42:21.429Z,17.25
2022-11-02T16:44:57.086Z,17.24
2022-11-02T16:47:50.147Z,17.25
2022-11-02T16:50:22.507Z,17.26
2022-11-02T16:52:55.010Z,17.24
2022-11-02T16:55:40.066Z,17.27
2022-11-02T16:58:12.362Z,17.28
2022-11-02T17:00:39.599Z,17.28
2022-11-02T17:03:14.427Z,17.24
2022-11-02T17:05:42.446Z,17.34
2022-11-02T17:08:39.671Z,17.32
2022-11-02T17:11:12.604Z,17.43
2022-11-02T17:14:02.322Z,17.57
2022-11-02T17:16:33.196Z,17.59
2022-11-02T17:19:03.603Z,17.66
2022-11-02T17:21:30.564Z,17.61
2022-11-02T17:23:58.692Z,17.61
2022-11-02T17:26:28.904Z,17.67
2022-11-02T17:28:56.925Z,17.69
2022-11-02T17:31:35.766Z,17.75
2022-11-02T17:34:10.223Z,17.81
2022-11-02T17:36:43.962Z,17.82
2022-11-02T17:39:13.784Z,17.79
2022-11-02T17:41:59.141Z,17.80
2022-11-02T17:44:25.870Z,17.87
2022-11-02T17:46:54.506Z,17.82
2022-11-02T17:49:21.215Z,17.83
2022-11-02T17:51:47.949Z,17.89
2022-11-02T17:54:14.920Z,17.91
2022-11-02T17:56:41.629Z,17.91
2022-11-02T17:59:08.237Z,17.87
2022-11-02T18:01:35.147Z,17.91
2022-11-02T18:04:02.001Z,17.91
2022-11-02T18:06:29.774Z,17.86
2022-11-02T18:09:11.545Z,17.80
2022-11-02T18:11:38.145Z,17.75
2022-11-02T18:14:04.973Z,17.72
2022-11-02T18:16:32.273Z,17.67
2022-11-02T18:18:59.000Z,17.65
2022-11-02T18:21:25.624Z,17.62
2022-11-02T18:23:52.260Z,17.70
2022-11-02T18:26:19.039Z,17.62
2022-11-02T18:28:45.610Z,17.59
2022-11-02T18:31:12.808Z,17.60
2022-11-02T18:33:39.684Z,17.64
2022-11-02T18:36:09.292Z,17.64
2022-11-02T18:38:36.904Z,17.64
2022-11-02T18:41:27.524Z,17.74
2022-11-02T18:44:00.554Z,17.65
2022-11-02T18:46:31.255Z,17.57
2022-11-02T18:48:58.549Z,17.53
2022-11-02T18:51:26.028Z,17.56
2022-11-02T18:53:56.012Z,17.62
2022-11-02T18:56:23.292Z,17.52
2022-11-02T18:58:51.242Z,17.52
2022-11-02T19:01:22.001Z,17.57
2022-11-02T19:03:53.205Z,17.61
2022-11-02T19:06:39.154Z,17.58
2022-11-02T19:09:19.545Z,17.51
2022-11-02T19:11:47.790Z,17.39
2022-11-02T19:14:14.801Z,17.49
2022-11-02T19:16:41.924Z,17.43
2022-11-02T19:19:09.114Z,17.38
2022-11-02T19:21:35.894Z,17.36
2022-11-02T19:24:04.847Z,17.36
2022-11-02T19:26:31.641Z,17.23
2022-11-02T19:29:02.902Z,17.28
2022-11-02T19:31:33.187Z,17.32
2022-11-02T19:34:00.036Z,17.35
2022-11-02T19:36:26.788Z,17.18
2022-11-02T19:38:53.631Z,17.27
2022-11-02T19:41:21.688Z,17.15
2022-11-02T19:43:48.267Z,17.11
2022-11-02T19:46:17.877Z,17.22
2022-11-02T19:48:45.201Z,17.19
2022-11-02T19:51:20.420Z,17.18
2022-11-02T19:53:50.342Z,17.09
2022-11-02T19:56:18.439Z,17.19
2022-11-02T19:58:47.483Z,17.08
2022-11-02T20:01:16.512Z,17.12
2022-11-02T20:03:43.670Z,17.15
2022-11-02T20:06:14.071Z,17.06
2022-11-02T20:08:41.071Z,17.02
2022-11-02T20:11:10.728Z,17.02
2022-11-02T20:13:39.081Z,17.03
2022-11-02T20:16:07.923Z,17.09
2022-11-02T20:18:35.850Z,17.07
2022-11-02T20:21:07.528Z,16.99
2022-11-02T20:23:35.466Z,17.07
2022-11-02T20:26:04.461Z,16.98
2022-11-02T20:28:31.836Z,17.12
2022-11-02T20:30:58.581Z,17.07
2022-11-02T20:33:25.180Z,17.05
2022-11-02T20:35:51.896Z,17.02
2022-11-02T20:38:18.467Z,17.01
2022-11-02T20:40:45.086Z,16.98
2022-11-02T20:43:11.644Z,16.97
2022-11-02T20:45:38.177Z,16.96
2022-11-02T20:48:05.339Z,17.04
2022-11-02T20:50:32.546Z,16.99
2022-11-02T20:52:59.894Z,16.94
2022-11-02T20:55:26.707Z,16.97
2022-11-02T20:57:53.343Z,16.97
2022-11-02T21:00:20.722Z,17.14
2022-11-02T21:02:48.103Z,17.16
2022-11-02T21:05:15.071Z,17.20
2022-11-02T21:07:41.845Z,17.25
2022-11-02T21:10:09.623Z,17.29
2022-11-02T21:12:55.222Z,17.36
2022-11-02T21:15:21.909Z,17.37
2022-11-02T21:17:48.560Z,17.40
2022-11-02T21:20:33.232Z,17.49
2022-11-02T21:23:05.734Z,17.43
2022-11-02T21:25:33.396Z,17.48
2022-11-02T21:28:00.516Z,17.50
2022-11-02T21:30:30.849Z,17.54
2022-11-02T21:32:58.872Z,17.54
2022-11-02T21:35:25.760Z,17.62
2022-11-02T21:37:56.486Z,17.68
2022-11-02T21:40:23.471Z,17.60
2022-11-02T21:42:50.248Z,17.60
2022-11-02T21:45:18.324Z,17.61
2022-11-02T21:47:45.219Z,17.64
2022-11-02T21:50:12.699Z,17.63
2022-11-02T21:52:42.470Z,17.70
2022-11-02T21:55:11.958Z,17.65
2022-11-02T21:57:38.883Z,17.65
2022-11-02T22:00:06.144Z,17.64
2022-11-02T22:02:39.326Z,17.63
2022-11-02T22:05:06.387Z,17.63
2022-11-02T22:07:53.084Z,17.67
2022-11-02T22:10:19.711Z,17.72
2022-11-02T22:13:05.029Z,17.78
2022-11-02T22:15:34.536Z,17.75
2022-11-02T22:18:04.985Z,17.75
2022-11-02T22:20:31.550Z,17.75
2022-11-02T22:22:58.259Z,17.80
2022-11-02T22:25:25.497Z,17.83
2022-11-02T22:27:51.990Z,17.71
2022-11-02T22:30:18.884Z,17.64
2022-11-02T22:32:45.559Z,17.60
2022-11-02T22:35:12.360Z,17.57
2022-11-02T22:37:57.525Z,17.68
2022-11-02T22:40:24.183Z,17.80
2022-11-02T22:42:54.435Z,17.77
2022-11-02T22:45:20.944Z,17.72
2022-11-02T22:47:50.743Z,17.71
2022-11-02T22:50:17.440Z,17.71
2022-11-02T22:52:44.077Z,17.72
2022-11-02T22:55:10.699Z,17.67
2022-11-02T22:57:37.215Z,17.60
2022-11-02T23:00:05.233Z,17.58
2022-11-02T23:02:31.864Z,17.53
2022-11-02T23:04:58.470Z,17.51
2022-11-02T23:07:25.134Z,17.49
2022-11-02T23:09:51.930Z,17.51
2022-11-02T23:12:24.375Z,17.46
2022-11-02T23:14:50.978Z,17.44
2022-11-02T23:17:17.491Z,17.50
2022-11-02T23:19:49.585Z,17.45
2022-11-02T23:22:32.244Z,17.37
2022-11-02T23:25:18.085Z,17.38
2022-11-02T23:28:14.257Z,17.41
2022-11-02T23:30:59.904Z,17.40
2022-11-02T23:33:44.707Z,17.39
2022-11-02T23:36:11.517Z,17.34
2022-11-02T23:38:57.780Z,17.33
2022-11-02T23:41:25.109Z,17.34
2022-11-02T23:43:53.228Z,17.26
2022-11-02T23:46:19.761Z,17.27
2022-11-02T23:48:49.601Z,17.31
2022-11-02T23:51:38.320Z,17.25
2022-11-02T23:54:23.376Z,17.22
2022-11-02T23:56:50.263Z,17.27
2022-11-02T23:59:18.351Z,17.25
